Marina, California
Current Conditions -  °F | °C
As of 5:54 PM on Wednesday 22 Oct 2014 (Local Time) from KMRY Reporting Station
Clear Clear  
Wind Chill: 66°   Ceiling: Unl
Heat Index: 66°   Visibility: 10mi
Dew Point: 55°   Wind: 6mph
Humidity: 68%   Direction: 280°W
Pressure: 30.03"   Gusts: NA
Location:  36.68°N, 121.8°W
Report Text: KMRY 230054Z 28005KT 10SM CLR 19/13 A3003 RMK AO2 SLP181 T01890128
Loading
Personal Weather Stations






























Interactive Weather Map
Tropical Storm Tracking
New forecast layout! Learn more

10-Day Weather Forecast

Advertisements
Track Severe Weather on mobile